sensor_id;sensor_type;location;lat;lon;timestamp;pressure;altitude;pressure_sealevel;temperature;humidity
21100;BME280;10708;50.824;4.408;2022-11-25T00:00:20;99980.88;;;10.71;100.00
21100;BME280;10708;50.824;4.408;2022-11-25T00:05:24;99979.88;;;10.74;100.00
21100;BME280;10708;50.824;4.408;2022-11-25T00:10:26;99982.59;;;10.72;100.00
21100;BME280;10708;50.824;4.408;2022-11-25T00:15:30;99980.50;;;10.79;100.00
21100;BME280;10708;50.824;4.408;2022-11-25T00:20:32;99980.50;;;10.79;100.00
21100;BME280;10708;50.824;4.408;2022-11-25T00:25:34;99968.06;;;10.64;100.00
21100;BME280;10708;50.824;4.408;2022-11-25T00:30:38;99981.94;;;10.67;100.00
21100;BME280;10708;50.824;4.408;2022-11-25T00:35:40;99988.41;;;10.60;100.00
21100;BME280;10708;50.824;4.408;2022-11-25T00:40:42;99994.75;;;10.56;100.00
21100;BME280;10708;50.824;4.408;2022-11-25T00:46:06;100022.53;;;10.43;100.00
21100;BME280;10708;50.824;4.408;2022-11-25T00:51:08;100033.41;;;10.14;100.00
21100;BME280;10708;50.824;4.408;2022-11-25T00:56:11;100041.06;;;9.78;100.00
21100;BME280;10708;50.824;4.408;2022-11-25T01:01:17;100045.53;;;9.54;100.00
21100;BME280;10708;50.824;4.408;2022-11-25T01:06:20;100060.59;;;9.27;100.00
21100;BME280;10708;50.824;4.408;2022-11-25T01:11:22;100058.53;;;9.12;100.00
21100;BME280;10708;50.824;4.408;2022-11-25T01:16:26;100080.53;;;8.86;100.00
21100;BME280;10708;50.824;4.408;2022-11-25T01:21:30;100085.94;;;8.81;100.00
21100;BME280;10708;50.824;4.408;2022-11-25T01:26:34;100094.09;;;8.74;100.00
21100;BME280;10708;50.824;4.408;2022-11-25T01:31:38;100079.03;;;8.54;100.00
21100;BME280;10708;50.824;4.408;2022-11-25T01:36:41;100103.53;;;8.55;100.00
21100;BME280;10708;50.824;4.408;2022-11-25T01:41:44;100108.88;;;8.51;100.00
21100;BME280;10708;50.824;4.408;2022-11-25T01:46:58;100105.66;;;8.43;100.00
21100;BME280;10708;50.824;4.408;2022-11-25T01:52:07;100094.31;;;8.43;100.00
21100;BME280;10708;50.824;4.408;2022-11-25T01:57:13;100012.19;;;8.39;100.00
21100;BME280;10708;50.824;4.408;2022-11-25T02:02:19;100002.56;;;8.40;100.00
21100;BME280;10708;50.824;4.408;2022-11-25T02:07:26;100013.19;;;8.37;100.00
21100;BME280;10708;50.824;4.408;2022-11-25T02:12:33;99986.91;;;8.38;100.00
21100;BME280;10708;50.824;4.408;2022-11-25T02:17:37;100004.47;;;8.36;100.00
21100;BME280;10708;50.824;4.408;2022-11-25T02:22:48;100010.66;;;8.34;100.00
21100;BME280;10708;50.824;4.408;2022-11-25T02:27:56;100031.66;;;8.34;100.00
21100;BME280;10708;50.824;4.408;2022-11-25T02:33:00;100030.84;;;8.32;100.00
21100;BME280;10708;50.824;4.408;2022-11-25T02:38:07;100052.75;;;8.29;100.00
21100;BME280;10708;50.824;4.408;2022-11-25T02:43:11;100077.22;;;8.30;100.00
21100;BME280;10708;50.824;4.408;2022-11-25T02:48:14;100071.97;;;8.30;100.00
21100;BME280;10708;50.824;4.408;2022-11-25T02:53:17;100079.94;;;8.28;100.00
21100;BME280;10708;50.824;4.408;2022-11-25T02:58:21;100103.59;;;8.27;100.00
21100;BME280;10708;50.824;4.408;2022-11-25T03:03:23;100102.91;;;8.20;100.00
21100;BME280;10708;50.824;4.408;2022-11-25T03:08:25;100107.50;;;8.13;100.00
21100;BME280;10708;50.824;4.408;2022-11-25T03:13:29;100105.19;;;8.04;100.00
21100;BME280;10708;50.824;4.408;2022-11-25T03:18:32;100100.16;;;7.98;100.00
21100;BME280;10708;50.824;4.408;2022-11-25T03:23:34;100107.28;;;7.93;100.00
21100;BME280;10708;50.824;4.408;2022-11-25T03:28:38;100116.06;;;7.92;100.00
21100;BME280;10708;50.824;4.408;2022-11-25T03:33:40;100113.44;;;7.92;100.00
21100;BME280;10708;50.824;4.408;2022-11-25T03:38:42;100125.75;;;7.90;100.00
21100;BME280;10708;50.824;4.408;2022-11-25T03:43:46;100135.38;;;7.90;100.00
21100;BME280;10708;50.824;4.408;2022-11-25T03:48:48;100133.59;;;7.90;100.00
21100;BME280;10708;50.824;4.408;2022-11-25T03:53:51;100155.47;;;7.89;100.00
21100;BME280;10708;50.824;4.408;2022-11-25T03:58:54;100167.69;;;7.90;100.00
21100;BME280;10708;50.824;4.408;2022-11-25T04:03:57;100162.44;;;7.90;100.00
21100;BME280;10708;50.824;4.408;2022-11-25T04:08:59;100166.78;;;7.91;100.00
21100;BME280;10708;50.824;4.408;2022-11-25T04:14:03;100172.97;;;7.89;100.00
21100;BME280;10708;50.824;4.408;2022-11-25T04:19:05;100175.66;;;7.87;100.00
21100;BME280;10708;50.824;4.408;2022-11-25T04:24:08;100176.47;;;7.89;100.00
21100;BME280;10708;50.824;4.408;2022-11-25T04:29:12;100186.91;;;7.91;100.00
21100;BME280;10708;50.824;4.408;2022-11-25T04:34:14;100191.22;;;7.93;100.00
21100;BME280;10708;50.824;4.408;2022-11-25T04:39:16;100200.78;;;7.94;100.00
21100;BME280;10708;50.824;4.408;2022-11-25T04:44:20;100205.13;;;7.95;100.00
21100;BME280;10708;50.824;4.408;2022-11-25T04:49:22;100211.00;;;8.03;100.00
21100;BME280;10708;50.824;4.408;2022-11-25T04:54:24;100220.41;;;8.09;100.00
21100;BME280;10708;50.824;4.408;2022-11-25T04:59:28;100223.00;;;8.10;100.00
21100;BME280;10708;50.824;4.408;2022-11-25T05:04:44;100226.31;;;8.17;100.00
21100;BME280;10708;50.824;4.408;2022-11-25T05:09:46;100227.06;;;8.21;100.00
21100;BME280;10708;50.824;4.408;2022-11-25T05:14:50;100220.03;;;8.21;100.00
21100;BME280;10708;50.824;4.408;2022-11-25T05:19:52;100225.41;;;8.18;100.00
21100;BME280;10708;50.824;4.408;2022-11-25T05:24:55;100227.22;;;8.16;100.00
21100;BME280;10708;50.824;4.408;2022-11-25T05:29:59;100231.84;;;8.08;100.00
21100;BME280;10708;50.824;4.408;2022-11-25T05:35:01;100247.78;;;8.00;100.00
21100;BME280;10708;50.824;4.408;2022-11-25T05:40:04;100267.22;;;7.95;100.00
21100;BME280;10708;50.824;4.408;2022-11-25T05:45:09;100283.09;;;7.89;100.00
21100;BME280;10708;50.824;4.408;2022-11-25T05:50:12;100285.88;;;7.84;100.00
21100;BME280;10708;50.824;4.408;2022-11-25T05:55:14;100281.53;;;7.83;100.00
21100;BME280;10708;50.824;4.408;2022-11-25T06:00:18;100300.81;;;7.81;100.00
21100;BME280;10708;50.824;4.408;2022-11-25T06:05:21;100293.91;;;7.78;100.00
21100;BME280;10708;50.824;4.408;2022-11-25T06:10:23;100294.00;;;7.75;100.00
21100;BME280;10708;50.824;4.408;2022-11-25T06:15:27;100291.47;;;7.72;100.00
21100;BME280;10708;50.824;4.408;2022-11-25T06:20:29;100289.84;;;7.68;100.00
21100;BME280;10708;50.824;4.408;2022-11-25T06:25:32;100289.03;;;7.66;100.00
21100;BME280;10708;50.824;4.408;2022-11-25T06:30:36;100293.41;;;7.65;100.00
21100;BME280;10708;50.824;4.408;2022-11-25T06:35:38;100299.47;;;7.67;100.00
21100;BME280;10708;50.824;4.408;2022-11-25T06:40:41;100315.31;;;7.63;100.00
21100;BME280;10708;50.824;4.408;2022-11-25T06:45:44;100324.13;;;7.59;100.00
21100;BME280;10708;50.824;4.408;2022-11-25T06:50:54;100337.31;;;7.57;100.00
21100;BME280;10708;50.824;4.408;2022-11-25T06:56:04;100348.59;;;7.59;100.00
21100;BME280;10708;50.824;4.408;2022-11-25T07:01:12;100352.22;;;7.55;100.00
21100;BME280;10708;50.824;4.408;2022-11-25T07:06:15;100352.31;;;7.51;100.00
21100;BME280;10708;50.824;4.408;2022-11-25T07:11:21;100368.06;;;7.49;100.00
21100;BME280;10708;50.824;4.408;2022-11-25T07:16:26;100390.88;;;7.47;100.00
21100;BME280;10708;50.824;4.408;2022-11-25T07:21:30;100397.00;;;7.46;100.00
21100;BME280;10708;50.824;4.408;2022-11-25T07:26:34;100407.44;;;7.48;100.00
21100;BME280;10708;50.824;4.408;2022-11-25T07:31:41;100410.94;;;7.48;100.00
21100;BME280;10708;50.824;4.408;2022-11-25T07:36:45;100422.19;;;7.52;100.00
21100;BME280;10708;50.824;4.408;2022-11-25T07:41:49;100436.13;;;7.52;100.00
21100;BME280;10708;50.824;4.408;2022-11-25T07:46:53;100437.78;;;7.56;100.00
21100;BME280;10708;50.824;4.408;2022-11-25T07:51:57;100455.19;;;7.59;100.00
21100;BME280;10708;50.824;4.408;2022-11-25T07:57:00;100464.84;;;7.58;100.00
21100;BME280;10708;50.824;4.408;2022-11-25T08:02:04;100474.31;;;7.62;100.00
21100;BME280;10708;50.824;4.408;2022-11-25T08:07:07;100492.47;;;7.70;100.00
21100;BME280;10708;50.824;4.408;2022-11-25T08:12:09;100501.06;;;7.76;100.00
21100;BME280;10708;50.824;4.408;2022-11-25T08:17:13;100506.09;;;7.84;100.00
21100;BME280;10708;50.824;4.408;2022-11-25T08:22:15;100511.34;;;7.84;100.00
21100;BME280;10708;50.824;4.408;2022-11-25T08:27:17;100510.50;;;7.84;100.00
21100;BME280;10708;50.824;4.408;2022-11-25T08:32:21;100506.78;;;7.91;100.00
21100;BME280;10708;50.824;4.408;2022-11-25T08:37:24;100510.06;;;7.99;100.00
21100;BME280;10708;50.824;4.408;2022-11-25T08:42:26;100507.31;;;8.05;100.00
21100;BME280;10708;50.824;4.408;2022-11-25T08:47:30;100515.63;;;8.21;100.00
21100;BME280;10708;50.824;4.408;2022-11-25T08:52:32;100492.63;;;8.30;100.00
21100;BME280;10708;50.824;4.408;2022-11-25T08:57:34;100518.06;;;8.28;100.00
21100;BME280;10708;50.824;4.408;2022-11-25T09:02:38;100517.41;;;8.19;100.00
21100;BME280;10708;50.824;4.408;2022-11-25T09:07:41;100537.75;;;8.10;100.00
21100;BME280;10708;50.824;4.408;2022-11-25T09:12:44;100552.72;;;8.07;100.00
21100;BME280;10708;50.824;4.408;2022-11-25T09:17:48;100553.72;;;8.01;100.00
21100;BME280;10708;50.824;4.408;2022-11-25T09:22:50;100564.94;;;8.08;100.00
21100;BME280;10708;50.824;4.408;2022-11-25T09:27:53;100575.38;;;8.09;100.00
21100;BME280;10708;50.824;4.408;2022-11-25T09:32:57;100577.94;;;8.12;100.00
21100;BME280;10708;50.824;4.408;2022-11-25T09:37:59;100586.72;;;8.10;100.00
21100;BME280;10708;50.824;4.408;2022-11-25T09:43:07;100589.28;;;8.13;100.00
21100;BME280;10708;50.824;4.408;2022-11-25T09:48:52;100593.59;;;8.15;100.00
21100;BME280;10708;50.824;4.408;2022-11-25T09:54:04;100602.22;;;8.19;100.00
21100;BME280;10708;50.824;4.408;2022-11-25T09:59:17;100603.81;;;8.26;100.00
21100;BME280;10708;50.824;4.408;2022-11-25T10:04:25;100605.16;;;8.42;100.00
21100;BME280;10708;50.824;4.408;2022-11-25T10:09:31;100623.94;;;8.60;100.00
21100;BME280;10708;50.824;4.408;2022-11-25T10:14:39;100638.53;;;8.71;100.00
21100;BME280;10708;50.824;4.408;2022-11-25T10:19:56;100646.38;;;8.73;100.00
21100;BME280;10708;50.824;4.408;2022-11-25T10:25:04;100640.13;;;8.77;100.00
21100;BME280;10708;50.824;4.408;2022-11-25T10:30:14;100646.06;;;8.83;100.00
21100;BME280;10708;50.824;4.408;2022-11-25T10:35:27;100652.03;;;8.88;100.00
21100;BME280;10708;50.824;4.408;2022-11-25T10:40:31;100652.91;;;8.89;100.00
21100;BME280;10708;50.824;4.408;2022-11-25T10:45:40;100656.41;;;8.89;100.00
21100;BME280;10708;50.824;4.408;2022-11-25T10:51:00;100674.59;;;8.97;100.00
21100;BME280;10708;50.824;4.408;2022-11-25T10:56:09;100688.50;;;9.01;100.00
21100;BME280;10708;50.824;4.408;2022-11-25T11:01:15;100693.72;;;9.02;100.00
21100;BME280;10708;50.824;4.408;2022-11-25T11:06:31;100690.94;;;9.08;100.00
21100;BME280;10708;50.824;4.408;2022-11-25T11:11:46;100698.59;;;9.16;100.00
21100;BME280;10708;50.824;4.408;2022-11-25T11:16:51;100715.97;;;9.20;100.00
21100;BME280;10708;50.824;4.408;2022-11-25T11:21:56;100715.09;;;9.21;100.00
21100;BME280;10708;50.824;4.408;2022-11-25T11:27:04;100721.41;;;9.14;100.00
21100;BME280;10708;50.824;4.408;2022-11-25T11:32:19;100739.31;;;9.32;100.00
21100;BME280;10708;50.824;4.408;2022-11-25T11:37:35;100739.22;;;9.35;100.00
21100;BME280;10708;50.824;4.408;2022-11-25T11:42:45;100742.78;;;9.33;100.00
21100;BME280;10708;50.824;4.408;2022-11-25T11:47:59;100752.06;;;9.46;100.00
21100;BME280;10708;50.824;4.408;2022-11-25T11:53:15;100739.75;;;9.48;100.00
21100;BME280;10708;50.824;4.408;2022-11-25T11:58:32;100744.03;;;9.50;100.00
21100;BME280;10708;50.824;4.408;2022-11-25T12:03:47;100748.47;;;9.48;100.00
21100;BME280;10708;50.824;4.408;2022-11-25T12:08:55;100759.78;;;9.52;100.00
21100;BME280;10708;50.824;4.408;2022-11-25T12:14:03;100754.41;;;9.56;100.00
21100;BME280;10708;50.824;4.408;2022-11-25T12:19:12;100771.78;;;9.60;100.00
21100;BME280;10708;50.824;4.408;2022-11-25T12:24:21;100779.72;;;9.59;100.00
21100;BME280;10708;50.824;4.408;2022-11-25T12:29:34;100779.41;;;9.70;100.00
21100;BME280;10708;50.824;4.408;2022-11-25T12:34:41;100785.72;;;9.64;100.00
21100;BME280;10708;50.824;4.408;2022-11-25T12:39:51;100784.53;;;9.76;100.00
21100;BME280;10708;50.824;4.408;2022-11-25T12:45:00;100793.34;;;9.73;100.00
21100;BME280;10708;50.824;4.408;2022-11-25T12:50:05;100799.13;;;9.86;100.00
21100;BME280;10708;50.824;4.408;2022-11-25T12:55:22;100800.88;;;9.87;100.00
21100;BME280;10708;50.824;4.408;2022-11-25T13:00:36;100814.88;;;9.87;100.00
21100;BME280;10708;50.824;4.408;2022-11-25T13:05:58;100820.19;;;9.86;100.00
21100;BME280;10708;50.824;4.408;2022-11-25T13:11:23;100831.38;;;9.92;100.00
21100;BME280;10708;50.824;4.408;2022-11-25T13:16:31;100837.88;;;10.10;100.00
21100;BME280;10708;50.824;4.408;2022-11-25T13:21:37;100831.69;;;10.11;100.00
21100;BME280;10708;50.824;4.408;2022-11-25T13:26:57;100839.81;;;10.04;100.00
21100;BME280;10708;50.824;4.408;2022-11-25T13:37:37;100860.38;;;10.22;100.00
21100;BME280;10708;50.824;4.408;2022-11-25T13:54:04;100882.88;;;10.32;100.00
21100;BME280;10708;50.824;4.408;2022-11-25T14:04:43;100890.84;;;10.29;100.00
21100;BME280;10708;50.824;4.408;2022-11-25T14:10:02;100902.00;;;10.08;100.00
21100;BME280;10708;50.824;4.408;2022-11-25T14:15:29;100915.00;;;10.12;100.00
21100;BME280;10708;50.824;4.408;2022-11-25T14:20:42;100925.47;;;10.15;100.00
21100;BME280;10708;50.824;4.408;2022-11-25T14:25:50;100919.94;;;10.26;100.00
21100;BME280;10708;50.824;4.408;2022-11-25T14:30:56;100931.34;;;10.25;100.00
21100;BME280;10708;50.824;4.408;2022-11-25T14:36:05;100939.06;;;10.31;100.00
21100;BME280;10708;50.824;4.408;2022-11-25T14:46:55;100963.13;;;10.17;100.00
21100;BME280;10708;50.824;4.408;2022-11-25T14:57:23;100975.19;;;9.93;100.00
21100;BME280;10708;50.824;4.408;2022-11-25T15:02:38;101002.03;;;10.06;100.00
21100;BME280;10708;50.824;4.408;2022-11-25T15:07:58;101007.41;;;10.02;100.00
21100;BME280;10708;50.824;4.408;2022-11-25T15:18:34;101017.00;;;10.04;100.00
21100;BME280;10708;50.824;4.408;2022-11-25T15:23:40;101037.44;;;9.94;100.00
21100;BME280;10708;50.824;4.408;2022-11-25T15:28:42;101048.94;;;9.89;100.00
21100;BME280;10708;50.824;4.408;2022-11-25T15:33:49;101051.50;;;9.92;100.00
21100;BME280;10708;50.824;4.408;2022-11-25T15:39:12;101070.06;;;9.87;100.00
21100;BME280;10708;50.824;4.408;2022-11-25T15:44:20;101072.88;;;9.78;100.00
21100;BME280;10708;50.824;4.408;2022-11-25T15:49:26;101074.97;;;9.66;100.00
21100;BME280;10708;50.824;4.408;2022-11-25T15:54:30;101098.03;;;9.54;100.00
21100;BME280;10708;50.824;4.408;2022-11-25T15:59:48;101101.53;;;9.55;100.00
21100;BME280;10708;50.824;4.408;2022-11-25T16:05:17;101111.19;;;9.53;100.00
21100;BME280;10708;50.824;4.408;2022-11-25T16:10:26;101118.34;;;9.48;100.00
21100;BME280;10708;50.824;4.408;2022-11-25T16:15:41;101121.97;;;9.42;100.00
21100;BME280;10708;50.824;4.408;2022-11-25T16:20:51;101124.78;;;9.33;100.00
21100;BME280;10708;50.824;4.408;2022-11-25T16:25:57;101132.00;;;9.23;100.00
21100;BME280;10708;50.824;4.408;2022-11-25T16:30:59;101149.59;;;9.20;100.00
21100;BME280;10708;50.824;4.408;2022-11-25T16:36:03;101160.25;;;9.14;100.00
21100;BME280;10708;50.824;4.408;2022-11-25T16:41:08;101167.34;;;9.09;100.00
21100;BME280;10708;50.824;4.408;2022-11-25T16:46:14;101182.34;;;9.04;100.00
21100;BME280;10708;50.824;4.408;2022-11-25T16:51:21;101192.00;;;9.02;100.00
21100;BME280;10708;50.824;4.408;2022-11-25T16:56:28;101198.28;;;8.95;100.00
21100;BME280;10708;50.824;4.408;2022-11-25T17:01:32;101209.66;;;8.95;100.00
21100;BME280;10708;50.824;4.408;2022-11-25T17:06:36;101207.97;;;8.93;100.00
21100;BME280;10708;50.824;4.408;2022-11-25T17:11:41;101219.47;;;8.87;100.00
21100;BME280;10708;50.824;4.408;2022-11-25T17:16:44;101222.97;;;8.86;100.00
21100;BME280;10708;50.824;4.408;2022-11-25T17:21:47;101234.41;;;8.82;100.00
21100;BME280;10708;50.824;4.408;2022-11-25T17:26:54;101231.88;;;8.77;100.00
21100;BME280;10708;50.824;4.408;2022-11-25T17:31:57;101238.09;;;8.72;100.00
21100;BME280;10708;50.824;4.408;2022-11-25T17:37:03;101248.69;;;8.67;100.00
21100;BME280;10708;50.824;4.408;2022-11-25T17:42:10;101259.28;;;8.61;100.00
21100;BME280;10708;50.824;4.408;2022-11-25T17:47:15;101273.31;;;8.60;100.00
21100;BME280;10708;50.824;4.408;2022-11-25T17:52:19;101276.03;;;8.56;100.00
21100;BME280;10708;50.824;4.408;2022-11-25T17:57:21;101283.06;;;8.52;100.00
21100;BME280;10708;50.824;4.408;2022-11-25T18:02:28;101292.69;;;8.53;100.00
21100;BME280;10708;50.824;4.408;2022-11-25T18:07:33;101306.72;;;8.49;100.00
21100;BME280;10708;50.824;4.408;2022-11-25T18:12:35;101325.16;;;8.47;100.00
21100;BME280;10708;50.824;4.408;2022-11-25T18:17:38;101328.69;;;8.45;100.00
21100;BME280;10708;50.824;4.408;2022-11-25T18:22:42;101332.25;;;8.41;100.00
21100;BME280;10708;50.824;4.408;2022-11-25T18:27:46;101343.69;;;8.38;100.00
21100;BME280;10708;50.824;4.408;2022-11-25T18:32:49;101346.38;;;8.32;100.00
21100;BME280;10708;50.824;4.408;2022-11-25T18:37:53;101356.00;;;8.29;100.00
21100;BME280;10708;50.824;4.408;2022-11-25T18:42:58;101353.44;;;8.26;100.00
21100;BME280;10708;50.824;4.408;2022-11-25T18:48:10;101361.34;;;8.21;100.00
21100;BME280;10708;50.824;4.408;2022-11-25T18:53:15;101379.78;;;8.18;100.00
21100;BME280;10708;50.824;4.408;2022-11-25T18:58:20;101373.69;;;8.16;100.00
21100;BME280;10708;50.824;4.408;2022-11-25T19:03:24;101386.84;;;8.11;100.00
21100;BME280;10708;50.824;4.408;2022-11-25T19:08:28;101400.06;;;8.05;100.00
21100;BME280;10708;50.824;4.408;2022-11-25T19:13:34;101404.47;;;8.00;100.00
21100;BME280;10708;50.824;4.408;2022-11-25T19:18:38;101404.56;;;7.94;100.00
21100;BME280;10708;50.824;4.408;2022-11-25T19:23:42;101415.97;;;7.89;100.00
21100;BME280;10708;50.824;4.408;2022-11-25T19:28:47;101431.78;;;7.84;100.00
21100;BME280;10708;50.824;4.408;2022-11-25T19:33:51;101419.56;;;7.80;100.00
21100;BME280;10708;50.824;4.408;2022-11-25T19:38:55;101426.63;;;7.76;100.00
21100;BME280;10708;50.824;4.408;2022-11-25T19:43:58;101443.25;;;7.74;100.00
21100;BME280;10708;50.824;4.408;2022-11-25T19:49:01;101445.88;;;7.71;100.00
21100;BME280;10708;50.824;4.408;2022-11-25T19:54:11;101445.06;;;7.67;100.00
21100;BME280;10708;50.824;4.408;2022-11-25T19:59:16;101454.72;;;7.64;100.00
21100;BME280;10708;50.824;4.408;2022-11-25T20:04:20;101453.88;;;7.59;100.00
21100;BME280;10708;50.824;4.408;2022-11-25T20:09:25;101458.31;;;7.52;100.00
21100;BME280;10708;50.824;4.408;2022-11-25T20:14:28;101469.72;;;7.48;100.00
21100;BME280;10708;50.824;4.408;2022-11-25T20:19:35;101478.47;;;7.43;100.00
21100;BME280;10708;50.824;4.408;2022-11-25T20:24:39;101481.16;;;7.38;100.00
21100;BME280;10708;50.824;4.408;2022-11-25T20:29:42;101486.41;;;7.35;100.00
21100;BME280;10708;50.824;4.408;2022-11-25T20:34:44;101496.91;;;7.30;100.00
21100;BME280;10708;50.824;4.408;2022-11-25T20:39:49;101515.31;;;7.27;100.00
21100;BME280;10708;50.824;4.408;2022-11-25T20:44:53;101519.69;;;7.25;100.00
21100;BME280;10708;50.824;4.408;2022-11-25T20:49:57;101524.06;;;7.22;100.00
21100;BME280;10708;50.824;4.408;2022-11-25T20:55:04;101534.53;;;7.20;100.00
21100;BME280;10708;50.824;4.408;2022-11-25T21:00:16;101541.53;;;7.20;100.00
21100;BME280;10708;50.824;4.408;2022-11-25T21:05:19;101551.13;;;7.22;100.00
21100;BME280;10708;50.824;4.408;2022-11-25T21:10:26;101566.84;;;7.21;100.00
21100;BME280;10708;50.824;4.408;2022-11-25T21:15:29;101565.97;;;7.22;100.00
21100;BME280;10708;50.824;4.408;2022-11-25T21:20:31;101579.94;;;7.24;100.00
21100;BME280;10708;50.824;4.408;2022-11-25T21:25:35;101577.34;;;7.24;100.00
21100;BME280;10708;50.824;4.408;2022-11-25T21:30:38;101578.22;;;7.23;100.00
21100;BME280;10708;50.824;4.408;2022-11-25T21:35:44;101590.44;;;7.21;100.00
21100;BME280;10708;50.824;4.408;2022-11-25T21:40:50;101587.00;;;7.17;100.00
21100;BME280;10708;50.824;4.408;2022-11-25T21:45:58;101595.72;;;7.15;100.00
21100;BME280;10708;50.824;4.408;2022-11-25T21:51:02;101609.72;;;7.11;100.00
21100;BME280;10708;50.824;4.408;2022-11-25T21:56:15;101616.72;;;7.09;100.00
21100;BME280;10708;50.824;4.408;2022-11-25T22:01:19;101621.09;;;7.05;100.00
21100;BME280;10708;50.824;4.408;2022-11-25T22:06:24;101626.34;;;7.02;100.00
21100;BME280;10708;50.824;4.408;2022-11-25T22:11:30;101619.34;;;6.99;100.00
21100;BME280;10708;50.824;4.408;2022-11-25T22:16:34;101633.38;;;6.95;100.00
21100;BME280;10708;50.824;4.408;2022-11-25T22:21:37;101634.25;;;6.94;100.00
21100;BME280;10708;50.824;4.408;2022-11-25T22:26:42;101630.75;;;6.89;100.00
21100;BME280;10708;50.824;4.408;2022-11-25T22:31:45;101636.91;;;6.85;100.00
21100;BME280;10708;50.824;4.408;2022-11-25T22:36:49;101649.13;;;6.83;100.00
21100;BME280;10708;50.824;4.408;2022-11-25T22:41:55;101655.25;;;6.78;100.00
21100;BME280;10708;50.824;4.408;2022-11-25T22:46:59;101663.97;;;6.74;100.00
21100;BME280;10708;50.824;4.408;2022-11-25T22:52:01;101677.94;;;6.70;100.00
21100;BME280;10708;50.824;4.408;2022-11-25T22:57:06;101687.56;;;6.66;100.00
21100;BME280;10708;50.824;4.408;2022-11-25T23:02:15;101689.31;;;6.62;100.00
21100;BME280;10708;50.824;4.408;2022-11-25T23:07:19;101692.81;;;6.58;100.00
21100;BME280;10708;50.824;4.408;2022-11-25T23:12:22;101692.81;;;6.54;100.00
21100;BME280;10708;50.824;4.408;2022-11-25T23:17:25;101697.16;;;6.50;100.00
21100;BME280;10708;50.824;4.408;2022-11-25T23:22:28;101705.03;;;6.47;100.00
21100;BME280;10708;50.824;4.408;2022-11-25T23:27:32;101713.75;;;6.40;100.00
21100;BME280;10708;50.824;4.408;2022-11-25T23:32:34;101714.63;;;6.35;100.00
21100;BME280;10708;50.824;4.408;2022-11-25T23:37:37;101717.28;;;6.28;100.00
21100;BME280;10708;50.824;4.408;2022-11-25T23:42:40;101726.84;;;6.23;100.00
21100;BME280;10708;50.824;4.408;2022-11-25T23:47:44;101732.06;;;6.19;100.00
21100;BME280;10708;50.824;4.408;2022-11-25T23:52:47;101727.69;;;6.10;100.00
21100;BME280;10708;50.824;4.408;2022-11-25T23:57:51;101727.69;;;6.01;100.00
